sensor_id;sensor_type;location;lat;lon;timestamp;P1;durP1;ratioP1;P2;durP2;ratioP2
70026;SDS011;57506;50.092;15.804;2023-03-01T00:01:32;36.40;;;15.50;;
70026;SDS011;57506;50.092;15.804;2023-03-01T00:03:58;37.77;;;14.90;;
70026;SDS011;57506;50.092;15.804;2023-03-01T00:06:24;38.55;;;15.80;;
70026;SDS011;57506;50.092;15.804;2023-03-01T00:08:50;34.22;;;14.98;;
70026;SDS011;57506;50.092;15.804;2023-03-01T00:11:17;42.83;;;16.07;;
70026;SDS011;57506;50.092;15.804;2023-03-01T00:13:46;42.42;;;15.25;;
70026;SDS011;57506;50.092;15.804;2023-03-01T00:16:14;41.85;;;16.13;;
70026;SDS011;57506;50.092;15.804;2023-03-01T00:18:42;34.85;;;14.93;;
70026;SDS011;57506;50.092;15.804;2023-03-01T00:21:08;36.93;;;14.97;;
70026;SDS011;57506;50.092;15.804;2023-03-01T00:23:34;37.10;;;16.23;;
70026;SDS011;57506;50.092;15.804;2023-03-01T00:26:00;43.40;;;16.95;;
70026;SDS011;57506;50.092;15.804;2023-03-01T00:28:26;38.97;;;16.17;;
70026;SDS011;57506;50.092;15.804;2023-03-01T00:30:51;36.30;;;15.18;;
70026;SDS011;57506;50.092;15.804;2023-03-01T00:33:17;37.67;;;15.33;;
70026;SDS011;57506;50.092;15.804;2023-03-01T00:35:43;38.40;;;15.35;;
70026;SDS011;57506;50.092;15.804;2023-03-01T00:38:09;32.70;;;14.57;;
70026;SDS011;57506;50.092;15.804;2023-03-01T00:40:35;33.88;;;14.15;;
70026;SDS011;57506;50.092;15.804;2023-03-01T00:43:01;42.08;;;16.33;;
70026;SDS011;57506;50.092;15.804;2023-03-01T00:45:27;40.95;;;16.83;;
70026;SDS011;57506;50.092;15.804;2023-03-01T00:47:53;36.67;;;15.30;;
70026;SDS011;57506;50.092;15.804;2023-03-01T00:50:19;45.05;;;16.45;;
70026;SDS011;57506;50.092;15.804;2023-03-01T00:52:45;42.70;;;15.68;;
70026;SDS011;57506;50.092;15.804;2023-03-01T00:55:11;37.88;;;16.05;;
70026;SDS011;57506;50.092;15.804;2023-03-01T00:57:37;39.05;;;15.23;;
70026;SDS011;57506;50.092;15.804;2023-03-01T01:00:06;45.42;;;15.77;;
70026;SDS011;57506;50.092;15.804;2023-03-01T01:02:34;46.45;;;16.75;;
70026;SDS011;57506;50.092;15.804;2023-03-01T01:05:00;53.63;;;18.85;;
70026;SDS011;57506;50.092;15.804;2023-03-01T01:07:26;48.15;;;17.35;;
70026;SDS011;57506;50.092;15.804;2023-03-01T01:09:52;47.90;;;16.87;;
70026;SDS011;57506;50.092;15.804;2023-03-01T01:12:17;57.88;;;18.63;;
70026;SDS011;57506;50.092;15.804;2023-03-01T01:14:43;53.33;;;19.57;;
70026;SDS011;57506;50.092;15.804;2023-03-01T01:17:08;50.43;;;18.10;;
70026;SDS011;57506;50.092;15.804;2023-03-01T01:19:34;48.08;;;16.45;;
70026;SDS011;57506;50.092;15.804;2023-03-01T01:21:59;44.17;;;16.77;;
70026;SDS011;57506;50.092;15.804;2023-03-01T01:24:25;42.70;;;16.83;;
70026;SDS011;57506;50.092;15.804;2023-03-01T01:26:51;43.50;;;15.45;;
70026;SDS011;57506;50.092;15.804;2023-03-01T01:29:16;39.43;;;15.33;;
70026;SDS011;57506;50.092;15.804;2023-03-01T01:31:42;33.73;;;14.27;;
70026;SDS011;57506;50.092;15.804;2023-03-01T01:34:09;47.10;;;14.57;;
70026;SDS011;57506;50.092;15.804;2023-03-01T01:36:39;43.58;;;15.50;;
70026;SDS011;57506;50.092;15.804;2023-03-01T01:39:04;44.00;;;15.30;;
70026;SDS011;57506;50.092;15.804;2023-03-01T01:41:30;41.65;;;15.75;;
70026;SDS011;57506;50.092;15.804;2023-03-01T01:44:10;38.75;;;15.65;;
70026;SDS011;57506;50.092;15.804;2023-03-01T01:46:46;42.50;;;15.27;;
70026;SDS011;57506;50.092;15.804;2023-03-01T01:49:19;46.35;;;16.60;;
70026;SDS011;57506;50.092;15.804;2023-03-01T01:51:57;53.22;;;16.75;;
70026;SDS011;57506;50.092;15.804;2023-03-01T01:54:51;55.63;;;18.73;;
70026;SDS011;57506;50.092;15.804;2023-03-01T01:57:24;52.47;;;16.80;;
70026;SDS011;57506;50.092;15.804;2023-03-01T01:59:56;51.20;;;17.05;;
70026;SDS011;57506;50.092;15.804;2023-03-01T02:02:25;45.20;;;15.68;;
70026;SDS011;57506;50.092;15.804;2023-03-01T02:04:53;42.67;;;15.85;;
70026;SDS011;57506;50.092;15.804;2023-03-01T02:07:28;40.55;;;14.48;;
70026;SDS011;57506;50.092;15.804;2023-03-01T02:09:55;46.58;;;15.93;;
70026;SDS011;57506;50.092;15.804;2023-03-01T02:12:21;50.17;;;16.30;;
70026;SDS011;57506;50.092;15.804;2023-03-01T02:14:49;44.58;;;16.10;;
70026;SDS011;57506;50.092;15.804;2023-03-01T02:17:16;41.75;;;16.77;;
70026;SDS011;57506;50.092;15.804;2023-03-01T02:27:47;38.63;;;15.38;;
70026;SDS011;57506;50.092;15.804;2023-03-01T02:30:23;43.83;;;15.73;;
70026;SDS011;57506;50.092;15.804;2023-03-01T02:32:51;45.22;;;16.48;;
70026;SDS011;57506;50.092;15.804;2023-03-01T02:35:22;40.05;;;15.73;;
70026;SDS011;57506;50.092;15.804;2023-03-01T02:37:48;40.90;;;16.10;;
70026;SDS011;57506;50.092;15.804;2023-03-01T02:40:15;41.75;;;15.82;;
70026;SDS011;57506;50.092;15.804;2023-03-01T02:42:46;39.53;;;16.02;;
70026;SDS011;57506;50.092;15.804;2023-03-01T02:45:15;40.17;;;15.43;;
70026;SDS011;57506;50.092;15.804;2023-03-01T02:47:41;38.27;;;14.97;;
70026;SDS011;57506;50.092;15.804;2023-03-01T02:53:28;34.90;;;13.82;;
70026;SDS011;57506;50.092;15.804;2023-03-01T02:55:42;32.97;;;13.40;;
70026;SDS011;57506;50.092;15.804;2023-03-01T02:58:08;36.85;;;13.88;;
70026;SDS011;57506;50.092;15.804;2023-03-01T03:00:38;35.70;;;13.70;;
70026;SDS011;57506;50.092;15.804;2023-03-01T03:03:09;36.30;;;14.27;;
70026;SDS011;57506;50.092;15.804;2023-03-01T03:05:38;39.45;;;14.23;;
70026;SDS011;57506;50.092;15.804;2023-03-01T03:08:03;36.90;;;14.50;;
70026;SDS011;57506;50.092;15.804;2023-03-01T03:10:31;38.22;;;13.98;;
70026;SDS011;57506;50.092;15.804;2023-03-01T03:13:02;37.28;;;14.55;;
70026;SDS011;57506;50.092;15.804;2023-03-01T03:15:30;38.08;;;14.75;;
70026;SDS011;57506;50.092;15.804;2023-03-01T03:17:57;34.03;;;13.90;;
70026;SDS011;57506;50.092;15.804;2023-03-01T03:20:24;39.28;;;14.63;;
70026;SDS011;57506;50.092;15.804;2023-03-01T03:22:53;35.28;;;14.02;;
70026;SDS011;57506;50.092;15.804;2023-03-01T03:25:20;34.30;;;14.13;;
70026;SDS011;57506;50.092;15.804;2023-03-01T03:27:47;38.97;;;15.48;;
70026;SDS011;57506;50.092;15.804;2023-03-01T03:30:16;36.97;;;14.63;;
70026;SDS011;57506;50.092;15.804;2023-03-01T03:32:44;39.38;;;14.73;;
70026;SDS011;57506;50.092;15.804;2023-03-01T03:35:21;38.67;;;14.47;;
70026;SDS011;57506;50.092;15.804;2023-03-01T03:37:58;40.20;;;15.00;;
70026;SDS011;57506;50.092;15.804;2023-03-01T03:40:39;40.08;;;15.02;;
70026;SDS011;57506;50.092;15.804;2023-03-01T03:43:07;38.30;;;14.32;;
70026;SDS011;57506;50.092;15.804;2023-03-01T03:45:35;33.80;;;14.85;;
70026;SDS011;57506;50.092;15.804;2023-03-01T03:48:01;40.50;;;15.10;;
70026;SDS011;57506;50.092;15.804;2023-03-01T03:50:29;35.72;;;14.27;;
70026;SDS011;57506;50.092;15.804;2023-03-01T03:52:54;37.00;;;14.38;;
70026;SDS011;57506;50.092;15.804;2023-03-01T03:55:20;31.20;;;13.10;;
70026;SDS011;57506;50.092;15.804;2023-03-01T03:57:46;37.73;;;13.50;;
70026;SDS011;57506;50.092;15.804;2023-03-01T04:00:17;33.88;;;13.40;;
70026;SDS011;57506;50.092;15.804;2023-03-01T04:02:45;42.13;;;15.05;;
70026;SDS011;57506;50.092;15.804;2023-03-01T04:05:12;35.83;;;14.10;;
70026;SDS011;57506;50.092;15.804;2023-03-01T04:07:39;36.50;;;14.77;;
70026;SDS011;57506;50.092;15.804;2023-03-01T04:10:06;37.05;;;14.18;;
70026;SDS011;57506;50.092;15.804;2023-03-01T04:12:34;35.75;;;14.18;;
70026;SDS011;57506;50.092;15.804;2023-03-01T04:15:03;34.00;;;13.80;;
70026;SDS011;57506;50.092;15.804;2023-03-01T04:17:45;33.67;;;13.48;;
70026;SDS011;57506;50.092;15.804;2023-03-01T04:20:12;34.20;;;13.17;;
70026;SDS011;57506;50.092;15.804;2023-03-01T04:22:42;34.92;;;14.30;;
70026;SDS011;57506;50.092;15.804;2023-03-01T04:25:11;34.03;;;13.68;;
70026;SDS011;57506;50.092;15.804;2023-03-01T04:27:39;37.85;;;14.82;;
70026;SDS011;57506;50.092;15.804;2023-03-01T04:30:06;35.55;;;14.98;;
70026;SDS011;57506;50.092;15.804;2023-03-01T04:32:33;42.97;;;15.40;;
70026;SDS011;57506;50.092;15.804;2023-03-01T04:34:58;34.95;;;15.68;;
70026;SDS011;57506;50.092;15.804;2023-03-01T04:37:24;34.53;;;15.23;;
70026;SDS011;57506;50.092;15.804;2023-03-01T04:39:50;35.55;;;14.50;;
70026;SDS011;57506;50.092;15.804;2023-03-01T04:42:16;35.95;;;14.45;;
70026;SDS011;57506;50.092;15.804;2023-03-01T04:44:42;39.40;;;15.03;;
70026;SDS011;57506;50.092;15.804;2023-03-01T04:47:08;38.30;;;14.13;;
70026;SDS011;57506;50.092;15.804;2023-03-01T04:49:34;33.88;;;13.88;;
70026;SDS011;57506;50.092;15.804;2023-03-01T04:52:00;34.07;;;14.20;;
70026;SDS011;57506;50.092;15.804;2023-03-01T04:54:32;43.17;;;15.25;;
70026;SDS011;57506;50.092;15.804;2023-03-01T04:57:00;39.55;;;15.80;;
70026;SDS011;57506;50.092;15.804;2023-03-01T04:59:26;38.57;;;15.50;;
70026;SDS011;57506;50.092;15.804;2023-03-01T05:01:52;40.08;;;15.38;;
70026;SDS011;57506;50.092;15.804;2023-03-01T05:04:24;37.03;;;14.50;;
70026;SDS011;57506;50.092;15.804;2023-03-01T05:06:50;38.55;;;14.40;;
70026;SDS011;57506;50.092;15.804;2023-03-01T05:09:15;40.07;;;15.47;;
70026;SDS011;57506;50.092;15.804;2023-03-01T05:11:41;34.67;;;14.70;;
70026;SDS011;57506;50.092;15.804;2023-03-01T05:14:07;37.03;;;14.57;;
70026;SDS011;57506;50.092;15.804;2023-03-01T05:16:35;36.55;;;13.65;;
70026;SDS011;57506;50.092;15.804;2023-03-01T05:19:02;40.03;;;14.85;;
70026;SDS011;57506;50.092;15.804;2023-03-01T05:21:39;51.77;;;17.37;;
70026;SDS011;57506;50.092;15.804;2023-03-01T05:24:23;46.08;;;16.17;;
70026;SDS011;57506;50.092;15.804;2023-03-01T05:26:49;39.97;;;14.70;;
70026;SDS011;57506;50.092;15.804;2023-03-01T05:29:17;39.80;;;14.98;;
70026;SDS011;57506;50.092;15.804;2023-03-01T05:31:53;35.25;;;14.65;;
70026;SDS011;57506;50.092;15.804;2023-03-01T05:34:28;49.77;;;16.77;;
70026;SDS011;57506;50.092;15.804;2023-03-01T05:36:55;44.33;;;15.68;;
70026;SDS011;57506;50.092;15.804;2023-03-01T05:39:21;37.40;;;14.65;;
70026;SDS011;57506;50.092;15.804;2023-03-01T05:41:51;32.17;;;13.43;;
70026;SDS011;57506;50.092;15.804;2023-03-01T05:44:18;39.40;;;15.88;;
70026;SDS011;57506;50.092;15.804;2023-03-01T05:46:45;39.20;;;17.45;;
70026;SDS011;57506;50.092;15.804;2023-03-01T05:49:11;47.45;;;16.35;;
70026;SDS011;57506;50.092;15.804;2023-03-01T05:51:38;44.57;;;18.13;;
70026;SDS011;57506;50.092;15.804;2023-03-01T05:54:04;49.42;;;20.25;;
70026;SDS011;57506;50.092;15.804;2023-03-01T05:56:33;51.63;;;20.73;;
70026;SDS011;57506;50.092;15.804;2023-03-01T05:58:59;48.38;;;19.65;;
70026;SDS011;57506;50.092;15.804;2023-03-01T06:01:25;53.20;;;20.55;;
70026;SDS011;57506;50.092;15.804;2023-03-01T06:03:51;47.20;;;19.63;;
70026;SDS011;57506;50.092;15.804;2023-03-01T06:06:17;51.83;;;19.75;;
70026;SDS011;57506;50.092;15.804;2023-03-01T06:08:43;44.07;;;17.40;;
70026;SDS011;57506;50.092;15.804;2023-03-01T06:11:08;42.60;;;18.27;;
70026;SDS011;57506;50.092;15.804;2023-03-01T06:13:34;48.03;;;18.65;;
70026;SDS011;57506;50.092;15.804;2023-03-01T06:15:59;44.27;;;17.13;;
70026;SDS011;57506;50.092;15.804;2023-03-01T06:18:25;45.13;;;17.90;;
70026;SDS011;57506;50.092;15.804;2023-03-01T06:20:54;45.65;;;17.98;;
70026;SDS011;57506;50.092;15.804;2023-03-01T06:23:20;50.93;;;18.03;;
70026;SDS011;57506;50.092;15.804;2023-03-01T06:25:47;43.47;;;16.95;;
70026;SDS011;57506;50.092;15.804;2023-03-01T06:28:12;45.20;;;16.60;;
70026;SDS011;57506;50.092;15.804;2023-03-01T06:30:37;41.25;;;15.93;;
70026;SDS011;57506;50.092;15.804;2023-03-01T06:33:03;41.57;;;16.80;;
70026;SDS011;57506;50.092;15.804;2023-03-01T06:35:29;40.30;;;16.43;;
70026;SDS011;57506;50.092;15.804;2023-03-01T06:37:56;38.13;;;14.90;;
70026;SDS011;57506;50.092;15.804;2023-03-01T06:40:23;45.28;;;16.10;;
70026;SDS011;57506;50.092;15.804;2023-03-01T06:42:49;48.73;;;16.80;;
70026;SDS011;57506;50.092;15.804;2023-03-01T06:45:15;46.45;;;17.48;;
70026;SDS011;57506;50.092;15.804;2023-03-01T06:47:42;48.13;;;17.60;;
70026;SDS011;57506;50.092;15.804;2023-03-01T06:50:08;51.07;;;17.90;;
70026;SDS011;57506;50.092;15.804;2023-03-01T06:52:34;61.40;;;19.15;;
70026;SDS011;57506;50.092;15.804;2023-03-01T06:55:00;54.30;;;17.17;;
70026;SDS011;57506;50.092;15.804;2023-03-01T06:57:26;49.50;;;18.70;;
70026;SDS011;57506;50.092;15.804;2023-03-01T06:59:51;48.55;;;17.77;;
70026;SDS011;57506;50.092;15.804;2023-03-01T07:02:17;48.23;;;17.80;;
70026;SDS011;57506;50.092;15.804;2023-03-01T07:04:43;52.55;;;17.70;;
70026;SDS011;57506;50.092;15.804;2023-03-01T07:07:09;45.08;;;17.90;;
70026;SDS011;57506;50.092;15.804;2023-03-01T07:09:34;47.42;;;19.35;;
70026;SDS011;57506;50.092;15.804;2023-03-01T07:12:00;48.73;;;18.73;;
70026;SDS011;57506;50.092;15.804;2023-03-01T07:14:25;53.17;;;20.13;;
70026;SDS011;57506;50.092;15.804;2023-03-01T07:16:51;51.55;;;20.33;;
70026;SDS011;57506;50.092;15.804;2023-03-01T07:19:18;46.78;;;18.25;;
70026;SDS011;57506;50.092;15.804;2023-03-01T07:21:43;51.57;;;19.10;;
70026;SDS011;57506;50.092;15.804;2023-03-01T07:24:09;54.60;;;19.95;;
70026;SDS011;57506;50.092;15.804;2023-03-01T07:26:34;46.58;;;19.85;;
70026;SDS011;57506;50.092;15.804;2023-03-01T07:29:01;49.53;;;20.53;;
70026;SDS011;57506;50.092;15.804;2023-03-01T07:31:28;53.55;;;22.00;;
70026;SDS011;57506;50.092;15.804;2023-03-01T07:33:54;58.87;;;23.00;;
70026;SDS011;57506;50.092;15.804;2023-03-01T07:36:21;50.75;;;21.30;;
70026;SDS011;57506;50.092;15.804;2023-03-01T07:38:48;49.35;;;20.88;;
70026;SDS011;57506;50.092;15.804;2023-03-01T07:41:13;50.93;;;19.63;;
70026;SDS011;57506;50.092;15.804;2023-03-01T07:43:39;47.03;;;19.20;;
70026;SDS011;57506;50.092;15.804;2023-03-01T07:46:05;46.83;;;19.77;;
70026;SDS011;57506;50.092;15.804;2023-03-01T07:48:31;45.83;;;19.88;;
70026;SDS011;57506;50.092;15.804;2023-03-01T07:50:58;44.17;;;19.08;;
70026;SDS011;57506;50.092;15.804;2023-03-01T07:53:24;43.28;;;19.63;;
70026;SDS011;57506;50.092;15.804;2023-03-01T07:55:59;42.40;;;18.00;;
70026;SDS011;57506;50.092;15.804;2023-03-01T07:58:33;46.50;;;18.45;;
70026;SDS011;57506;50.092;15.804;2023-03-01T08:01:01;49.72;;;19.77;;
70026;SDS011;57506;50.092;15.804;2023-03-01T08:03:30;38.47;;;17.00;;
70026;SDS011;57506;50.092;15.804;2023-03-01T08:05:59;40.70;;;17.50;;
70026;SDS011;57506;50.092;15.804;2023-03-01T08:08:25;41.25;;;17.35;;
70026;SDS011;57506;50.092;15.804;2023-03-01T08:10:51;38.43;;;17.87;;
70026;SDS011;57506;50.092;15.804;2023-03-01T08:13:16;38.58;;;16.92;;
70026;SDS011;57506;50.092;15.804;2023-03-01T08:15:47;41.87;;;18.67;;
70026;SDS011;57506;50.092;15.804;2023-03-01T08:18:16;34.92;;;16.58;;
70026;SDS011;57506;50.092;15.804;2023-03-01T08:20:42;40.75;;;17.38;;
70026;SDS011;57506;50.092;15.804;2023-03-01T08:23:08;39.92;;;16.45;;
70026;SDS011;57506;50.092;15.804;2023-03-01T08:25:35;36.00;;;16.50;;
70026;SDS011;57506;50.092;15.804;2023-03-01T08:28:01;39.28;;;16.85;;
70026;SDS011;57506;50.092;15.804;2023-03-01T08:30:26;40.00;;;17.50;;
70026;SDS011;57506;50.092;15.804;2023-03-01T08:32:52;31.88;;;14.35;;
70026;SDS011;57506;50.092;15.804;2023-03-01T08:35:18;31.57;;;15.17;;
70026;SDS011;57506;50.092;15.804;2023-03-01T08:37:45;27.58;;;13.70;;
70026;SDS011;57506;50.092;15.804;2023-03-01T08:40:10;34.37;;;15.30;;
70026;SDS011;57506;50.092;15.804;2023-03-01T08:42:38;33.70;;;15.25;;
70026;SDS011;57506;50.092;15.804;2023-03-01T08:45:11;32.13;;;15.05;;
70026;SDS011;57506;50.092;15.804;2023-03-01T08:47:37;34.42;;;15.60;;
70026;SDS011;57506;50.092;15.804;2023-03-01T08:50:02;37.30;;;16.17;;
70026;SDS011;57506;50.092;15.804;2023-03-01T08:52:28;38.67;;;17.15;;
70026;SDS011;57506;50.092;15.804;2023-03-01T08:54:55;37.38;;;17.10;;
70026;SDS011;57506;50.092;15.804;2023-03-01T08:57:21;29.17;;;13.70;;
70026;SDS011;57506;50.092;15.804;2023-03-01T08:59:47;30.80;;;14.03;;
70026;SDS011;57506;50.092;15.804;2023-03-01T09:02:13;35.83;;;14.03;;
70026;SDS011;57506;50.092;15.804;2023-03-01T09:04:40;28.88;;;14.15;;
70026;SDS011;57506;50.092;15.804;2023-03-01T09:07:06;28.75;;;12.50;;
70026;SDS011;57506;50.092;15.804;2023-03-01T09:09:32;27.90;;;13.85;;
70026;SDS011;57506;50.092;15.804;2023-03-01T09:11:57;29.20;;;13.43;;
70026;SDS011;57506;50.092;15.804;2023-03-01T09:14:23;32.30;;;14.27;;
70026;SDS011;57506;50.092;15.804;2023-03-01T09:16:49;30.55;;;14.00;;
70026;SDS011;57506;50.092;15.804;2023-03-01T09:19:15;31.70;;;14.77;;
70026;SDS011;57506;50.092;15.804;2023-03-01T09:21:41;32.77;;;15.67;;
70026;SDS011;57506;50.092;15.804;2023-03-01T09:24:18;34.30;;;15.23;;
70026;SDS011;57506;50.092;15.804;2023-03-01T09:26:47;29.95;;;14.48;;
70026;SDS011;57506;50.092;15.804;2023-03-01T09:29:14;28.25;;;12.98;;
70026;SDS011;57506;50.092;15.804;2023-03-01T09:31:40;26.88;;;12.95;;
70026;SDS011;57506;50.092;15.804;2023-03-01T09:34:06;29.03;;;12.90;;
70026;SDS011;57506;50.092;15.804;2023-03-01T09:36:32;27.05;;;13.65;;
70026;SDS011;57506;50.092;15.804;2023-03-01T09:38:58;30.73;;;14.15;;
70026;SDS011;57506;50.092;15.804;2023-03-01T09:46:56;26.52;;;11.48;;
70026;SDS011;57506;50.092;15.804;2023-03-01T09:49:27;28.02;;;11.88;;
70026;SDS011;57506;50.092;15.804;2023-03-01T09:54:54;29.48;;;13.43;;
70026;SDS011;57506;50.092;15.804;2023-03-01T10:02:41;22.77;;;11.35;;
70026;SDS011;57506;50.092;15.804;2023-03-01T10:10:23;31.10;;;13.20;;
70026;SDS011;57506;50.092;15.804;2023-03-01T10:13:04;29.80;;;12.50;;
70026;SDS011;57506;50.092;15.804;2023-03-01T10:15:44;25.67;;;12.43;;
70026;SDS011;57506;50.092;15.804;2023-03-01T10:18:28;22.73;;;11.73;;
70026;SDS011;57506;50.092;15.804;2023-03-01T10:21:01;24.48;;;12.60;;
70026;SDS011;57506;50.092;15.804;2023-03-01T10:23:33;23.80;;;11.60;;
70026;SDS011;57506;50.092;15.804;2023-03-01T10:26:06;26.02;;;11.98;;
70026;SDS011;57506;50.092;15.804;2023-03-01T10:31:23;20.63;;;10.10;;
70026;SDS011;57506;50.092;15.804;2023-03-01T10:33:54;20.92;;;10.18;;
70026;SDS011;57506;50.092;15.804;2023-03-01T10:36:22;21.40;;;10.70;;
70026;SDS011;57506;50.092;15.804;2023-03-01T10:41:17;19.33;;;9.93;;
70026;SDS011;57506;50.092;15.804;2023-03-01T10:43:50;26.35;;;11.43;;
70026;SDS011;57506;50.092;15.804;2023-03-01T10:46:24;24.93;;;10.73;;
70026;SDS011;57506;50.092;15.804;2023-03-01T10:49:14;23.45;;;10.32;;
70026;SDS011;57506;50.092;15.804;2023-03-01T10:51:48;24.52;;;11.43;;
70026;SDS011;57506;50.092;15.804;2023-03-01T10:56:59;23.98;;;11.15;;
70026;SDS011;57506;50.092;15.804;2023-03-01T10:59:28;27.57;;;11.10;;
70026;SDS011;57506;50.092;15.804;2023-03-01T11:02:29;25.15;;;11.10;;
70026;SDS011;57506;50.092;15.804;2023-03-01T11:04:58;25.02;;;11.27;;
70026;SDS011;57506;50.092;15.804;2023-03-01T11:07:48;22.73;;;10.80;;
70026;SDS011;57506;50.092;15.804;2023-03-01T11:10:18;23.77;;;12.00;;
70026;SDS011;57506;50.092;15.804;2023-03-01T11:12:45;24.53;;;11.20;;
70026;SDS011;57506;50.092;15.804;2023-03-01T11:15:25;24.02;;;10.48;;
70026;SDS011;57506;50.092;15.804;2023-03-01T11:17:53;23.23;;;11.02;;
70026;SDS011;57506;50.092;15.804;2023-03-01T11:20:24;24.83;;;11.77;;
70026;SDS011;57506;50.092;15.804;2023-03-01T11:22:59;24.00;;;11.32;;
70026;SDS011;57506;50.092;15.804;2023-03-01T11:25:35;25.40;;;11.70;;
70026;SDS011;57506;50.092;15.804;2023-03-01T11:28:03;22.30;;;10.68;;
70026;SDS011;57506;50.092;15.804;2023-03-01T11:30:32;20.95;;;10.73;;
70026;SDS011;57506;50.092;15.804;2023-03-01T11:35:53;21.73;;;10.52;;
70026;SDS011;57506;50.092;15.804;2023-03-01T11:38:26;20.90;;;10.23;;
70026;SDS011;57506;50.092;15.804;2023-03-01T11:40:54;22.85;;;10.40;;
70026;SDS011;57506;50.092;15.804;2023-03-01T11:43:29;21.75;;;10.90;;
70026;SDS011;57506;50.092;15.804;2023-03-01T11:48:52;22.60;;;11.23;;
70026;SDS011;57506;50.092;15.804;2023-03-01T11:57:01;25.58;;;11.45;;
70026;SDS011;57506;50.092;15.804;2023-03-01T12:05:07;22.60;;;10.82;;
70026;SDS011;57506;50.092;15.804;2023-03-01T12:08:11;24.38;;;10.93;;
70026;SDS011;57506;50.092;15.804;2023-03-01T12:10:45;22.15;;;10.77;;
70026;SDS011;57506;50.092;15.804;2023-03-01T12:21:55;22.33;;;10.45;;
70026;SDS011;57506;50.092;15.804;2023-03-01T12:24:49;22.70;;;10.27;;
70026;SDS011;57506;50.092;15.804;2023-03-01T12:35:54;20.60;;;10.32;;
70026;SDS011;57506;50.092;15.804;2023-03-01T12:49:14;19.73;;;9.90;;
70026;SDS011;57506;50.092;15.804;2023-03-01T12:51:49;22.35;;;9.55;;
70026;SDS011;57506;50.092;15.804;2023-03-01T12:54:36;20.77;;;9.57;;
70026;SDS011;57506;50.092;15.804;2023-03-01T12:57:03;18.42;;;9.77;;
70026;SDS011;57506;50.092;15.804;2023-03-01T12:59:39;16.75;;;8.80;;
70026;SDS011;57506;50.092;15.804;2023-03-01T13:12:45;19.75;;;9.23;;
70026;SDS011;57506;50.092;15.804;2023-03-01T13:15:33;21.55;;;10.55;;
70026;SDS011;57506;50.092;15.804;2023-03-01T13:28:40;22.38;;;11.38;;
70026;SDS011;57506;50.092;15.804;2023-03-01T13:33:51;23.08;;;10.82;;
70026;SDS011;57506;50.092;15.804;2023-03-01T13:41:54;21.48;;;10.73;;
70026;SDS011;57506;50.092;15.804;2023-03-01T13:49:42;19.90;;;10.23;;
70026;SDS011;57506;50.092;15.804;2023-03-01T13:54:56;22.33;;;9.82;;
70026;SDS011;57506;50.092;15.804;2023-03-01T13:57:24;18.30;;;9.70;;
70026;SDS011;57506;50.092;15.804;2023-03-01T13:59:55;19.88;;;9.57;;
70026;SDS011;57506;50.092;15.804;2023-03-01T14:02:21;20.17;;;10.33;;
70026;SDS011;57506;50.092;15.804;2023-03-01T14:04:55;20.70;;;9.57;;
70026;SDS011;57506;50.092;15.804;2023-03-01T14:07:23;21.80;;;11.23;;
70026;SDS011;57506;50.092;15.804;2023-03-01T14:09:54;17.30;;;9.23;;
70026;SDS011;57506;50.092;15.804;2023-03-01T14:15:33;20.00;;;9.90;;
70026;SDS011;57506;50.092;15.804;2023-03-01T14:20:40;17.30;;;9.13;;
70026;SDS011;57506;50.092;15.804;2023-03-01T14:23:09;18.17;;;9.30;;
70026;SDS011;57506;50.092;15.804;2023-03-01T14:25:51;17.02;;;8.50;;
70026;SDS011;57506;50.092;15.804;2023-03-01T14:30:53;18.15;;;8.93;;
70026;SDS011;57506;50.092;15.804;2023-03-01T14:38:20;18.23;;;9.60;;
70026;SDS011;57506;50.092;15.804;2023-03-01T14:40:48;18.73;;;9.17;;
70026;SDS011;57506;50.092;15.804;2023-03-01T14:43:20;20.63;;;9.98;;
70026;SDS011;57506;50.092;15.804;2023-03-01T14:45:50;18.98;;;9.68;;
70026;SDS011;57506;50.092;15.804;2023-03-01T14:48:16;24.00;;;10.95;;
70026;SDS011;57506;50.092;15.804;2023-03-01T14:50:43;20.70;;;9.43;;
70026;SDS011;57506;50.092;15.804;2023-03-01T14:53:15;19.73;;;9.63;;
70026;SDS011;57506;50.092;15.804;2023-03-01T14:55:54;23.38;;;9.75;;
70026;SDS011;57506;50.092;15.804;2023-03-01T14:58:31;21.23;;;9.95;;
70026;SDS011;57506;50.092;15.804;2023-03-01T15:01:02;20.27;;;9.35;;
70026;SDS011;57506;50.092;15.804;2023-03-01T15:03:31;20.03;;;9.87;;
70026;SDS011;57506;50.092;15.804;2023-03-01T15:06:02;21.33;;;10.02;;
70026;SDS011;57506;50.092;15.804;2023-03-01T15:08:29;22.05;;;10.23;;
70026;SDS011;57506;50.092;15.804;2023-03-01T15:11:01;21.17;;;10.38;;
70026;SDS011;57506;50.092;15.804;2023-03-01T15:13:29;24.95;;;11.18;;
70026;SDS011;57506;50.092;15.804;2023-03-01T15:18:28;24.10;;;11.63;;
70026;SDS011;57506;50.092;15.804;2023-03-01T15:20:55;25.02;;;11.60;;
70026;SDS011;57506;50.092;15.804;2023-03-01T15:23:30;27.00;;;12.45;;
70026;SDS011;57506;50.092;15.804;2023-03-01T15:25:56;29.60;;;12.93;;
70026;SDS011;57506;50.092;15.804;2023-03-01T15:28:26;30.90;;;13.67;;
70026;SDS011;57506;50.092;15.804;2023-03-01T15:31:00;28.17;;;14.25;;
70026;SDS011;57506;50.092;15.804;2023-03-01T15:33:29;24.10;;;11.80;;
70026;SDS011;57506;50.092;15.804;2023-03-01T15:35:58;27.05;;;12.75;;
70026;SDS011;57506;50.092;15.804;2023-03-01T15:40:58;31.53;;;13.13;;
70026;SDS011;57506;50.092;15.804;2023-03-01T15:43:42;33.17;;;14.57;;
70026;SDS011;57506;50.092;15.804;2023-03-01T15:46:51;26.48;;;12.60;;
70026;SDS011;57506;50.092;15.804;2023-03-01T15:49:04;26.95;;;13.32;;
70026;SDS011;57506;50.092;15.804;2023-03-01T15:51:44;30.45;;;14.32;;
70026;SDS011;57506;50.092;15.804;2023-03-01T15:54:14;31.10;;;14.67;;
70026;SDS011;57506;50.092;15.804;2023-03-01T15:56:44;29.77;;;14.70;;
70026;SDS011;57506;50.092;15.804;2023-03-01T15:59:09;32.30;;;14.43;;
70026;SDS011;57506;50.092;15.804;2023-03-01T16:01:43;31.15;;;14.90;;
70026;SDS011;57506;50.092;15.804;2023-03-01T16:04:10;30.67;;;13.38;;
70026;SDS011;57506;50.092;15.804;2023-03-01T16:06:38;29.58;;;14.60;;
70026;SDS011;57506;50.092;15.804;2023-03-01T16:09:04;27.55;;;14.25;;
70026;SDS011;57506;50.092;15.804;2023-03-01T16:11:30;29.10;;;13.73;;
70026;SDS011;57506;50.092;15.804;2023-03-01T16:13:57;29.65;;;13.40;;
70026;SDS011;57506;50.092;15.804;2023-03-01T16:16:23;28.35;;;13.40;;
70026;SDS011;57506;50.092;15.804;2023-03-01T16:18:49;26.30;;;12.30;;
70026;SDS011;57506;50.092;15.804;2023-03-01T16:21:16;27.35;;;12.20;;
70026;SDS011;57506;50.092;15.804;2023-03-01T16:23:46;27.10;;;13.00;;
70026;SDS011;57506;50.092;15.804;2023-03-01T16:26:12;28.23;;;12.50;;
70026;SDS011;57506;50.092;15.804;2023-03-01T16:28:38;26.88;;;12.80;;
70026;SDS011;57506;50.092;15.804;2023-03-01T16:31:05;27.15;;;13.13;;
70026;SDS011;57506;50.092;15.804;2023-03-01T16:33:31;35.03;;;13.37;;
70026;SDS011;57506;50.092;15.804;2023-03-01T16:35:57;29.27;;;13.67;;
70026;SDS011;57506;50.092;15.804;2023-03-01T16:38:25;29.80;;;13.23;;
70026;SDS011;57506;50.092;15.804;2023-03-01T16:40:51;35.83;;;13.70;;